createdAt,value
2022-10-22T00:02:24.000Z,20.49
2022-10-22T00:07:25.000Z,20.64
2022-10-22T00:12:24.000Z,20.79
2022-10-22T00:17:24.000Z,20.75
2022-10-22T00:22:24.000Z,19.86
2022-10-22T00:27:24.000Z,20
2022-10-22T00:32:24.000Z,21.05
2022-10-22T00:37:24.000Z,20.34
2022-10-22T00:42:25.000Z,20.3
2022-10-22T00:47:24.000Z,19.44
2022-10-22T00:52:24.000Z,19.67
2022-10-22T00:57:24.000Z,19.51
2022-10-22T01:02:24.000Z,18.81
2022-10-22T01:07:24.000Z,18.29
2022-10-22T01:12:24.000Z,17.59
2022-10-22T01:17:24.000Z,17.35
2022-10-22T01:22:25.000Z,17.65
2022-10-22T01:27:24.000Z,17.3
2022-10-22T01:32:24.000Z,17.71
2022-10-22T01:37:24.000Z,18.61
2022-10-22T01:42:24.000Z,21.13
2022-10-22T01:47:24.000Z,19.49
2022-10-22T01:52:24.000Z,17.77
2022-10-22T01:57:25.000Z,17.06
2022-10-22T02:02:24.000Z,17.31
2022-10-22T02:07:24.000Z,17.45
2022-10-22T02:12:25.000Z,16.3
2022-10-22T02:17:25.000Z,16.1
2022-10-22T02:22:24.000Z,16.96
2022-10-22T02:27:24.000Z,15.94
2022-10-22T02:32:24.000Z,17.4
2022-10-22T02:42:24.000Z,20.53
2022-10-22T02:47:24.000Z,20.87
2022-10-22T02:52:24.000Z,20.24
2022-10-22T02:57:24.000Z,21.92
2022-10-22T03:02:24.000Z,20.56
2022-10-22T03:07:24.000Z,20.53
2022-10-22T03:12:24.000Z,22.28
2022-10-22T03:17:24.000Z,22.72
2022-10-22T03:22:24.000Z,21.18
2022-10-22T03:27:25.000Z,18.95
2022-10-22T03:32:24.000Z,18.6
2022-10-22T03:37:25.000Z,19.41
2022-10-22T03:42:25.000Z,19.47
2022-10-22T03:47:24.000Z,19.35
2022-10-22T03:52:24.000Z,19.9
2022-10-22T03:57:24.000Z,19.99
2022-10-22T04:02:24.000Z,19.73
2022-10-22T04:07:24.000Z,18.84
2022-10-22T04:12:25.000Z,19.12
2022-10-22T04:17:25.000Z,18.67
2022-10-22T04:22:25.000Z,19.19
2022-10-22T04:32:25.000Z,20.52
2022-10-22T04:37:24.000Z,21.14
2022-10-22T04:42:24.000Z,20.46
2022-10-22T04:47:25.000Z,20.21
2022-10-22T04:52:24.000Z,19.81
2022-10-22T04:57:24.000Z,20.21
2022-10-22T05:02:24.000Z,19.78
2022-10-22T05:07:25.000Z,19.6
2022-10-22T05:17:25.000Z,19.36
2022-10-22T05:22:24.000Z,19.52
2022-10-22T05:27:24.000Z,18.65
2022-10-22T05:32:25.000Z,18.97
2022-10-22T05:37:24.000Z,19.62
2022-10-22T05:42:24.000Z,19.85
2022-10-22T05:47:24.000Z,19.69
2022-10-22T05:52:25.000Z,19.26
2022-10-22T05:57:24.000Z,19.06
2022-10-22T06:02:24.000Z,19.6
2022-10-22T06:07:24.000Z,19.73
2022-10-22T06:12:24.000Z,20.24
2022-10-22T06:17:24.000Z,20.22
2022-10-22T06:22:25.000Z,20.44
2022-10-22T06:27:24.000Z,20.58
2022-10-22T06:32:25.000Z,21.27
2022-10-22T06:37:24.000Z,20.47
2022-10-22T07:12:25.000Z,22.57
2022-10-22T07:17:24.000Z,23.6
2022-10-22T07:22:24.000Z,22.66
2022-10-22T07:27:24.000Z,22.74
2022-10-22T07:32:25.000Z,23.25
2022-10-22T07:37:24.000Z,24.6
2022-10-22T07:42:24.000Z,23.64
2022-10-22T07:47:24.000Z,22.16
2022-10-22T07:52:24.000Z,21.06
2022-10-22T07:57:24.000Z,15.58
2022-10-22T08:02:25.000Z,16.37
2022-10-22T08:12:24.000Z,18.89
2022-10-22T08:17:24.000Z,20.1
2022-10-22T08:22:24.000Z,20.05
2022-10-22T08:27:25.000Z,19.17
2022-10-22T08:37:24.000Z,20.69
2022-10-22T08:42:25.000Z,21.78
2022-10-22T08:47:25.000Z,22.06
2022-10-22T08:52:24.000Z,22.18
2022-10-22T08:57:25.000Z,23.38
2022-10-22T09:02:24.000Z,22.26
2022-10-22T09:07:24.000Z,22.38
2022-10-22T09:12:25.000Z,22.14
2022-10-22T09:22:25.000Z,22.36
2022-10-22T09:27:25.000Z,23.57
2022-10-22T09:32:24.000Z,23.72
2022-10-22T09:37:24.000Z,23.92
2022-10-22T09:47:24.000Z,22.76
2022-10-22T09:52:24.000Z,20.11
2022-10-22T09:57:25.000Z,19.86
2022-10-22T10:02:25.000Z,17.49
2022-10-22T10:07:24.000Z,15.19
2022-10-22T10:12:24.000Z,15.41
2022-10-22T10:17:24.000Z,15.51
2022-10-22T10:22:24.000Z,15.69
2022-10-22T10:27:25.000Z,15.17
2022-10-22T10:32:24.000Z,14.85
2022-10-22T10:37:24.000Z,14.11
2022-10-22T10:42:24.000Z,13.91
2022-10-22T10:47:24.000Z,13.44
2022-10-22T10:52:25.000Z,13.49
2022-10-22T11:02:25.000Z,13.11
2022-10-22T11:07:24.000Z,12.98
2022-10-22T11:12:24.000Z,12.99
2022-10-22T11:17:25.000Z,13.24
2022-10-22T11:22:25.000Z,13.13
2022-10-22T11:27:25.000Z,12.99
2022-10-22T11:32:24.000Z,13.13
2022-10-22T11:37:24.000Z,12.87
2022-10-22T11:42:24.000Z,13.11
2022-10-22T11:47:24.000Z,12.94
2022-10-22T11:52:25.000Z,12.73
2022-10-22T11:57:24.000Z,12.92
2022-10-22T12:02:24.000Z,13.04
2022-10-22T12:07:24.000Z,13.53
2022-10-22T12:12:24.000Z,13.98
2022-10-22T12:17:24.000Z,13.44
2022-10-22T12:22:24.000Z,14.72
2022-10-22T12:27:24.000Z,16.8
2022-10-22T12:32:24.000Z,15.17
2022-10-22T12:37:25.000Z,15.29
2022-10-22T12:42:24.000Z,15.74
2022-10-22T12:47:24.000Z,16.44
2022-10-22T12:52:24.000Z,16.47
2022-10-22T12:57:24.000Z,14.7
2022-10-22T13:02:24.000Z,14.51
2022-10-22T13:07:24.000Z,15.58
2022-10-22T13:12:25.000Z,14.68
2022-10-22T13:17:25.000Z,15.01
2022-10-22T13:22:24.000Z,15.99
2022-10-22T13:27:24.000Z,16.73
2022-10-22T13:32:24.000Z,15.64
2022-10-22T13:37:24.000Z,19.49
2022-10-22T13:42:24.000Z,37.06
2022-10-22T13:47:24.000Z,45.85
2022-10-22T13:52:24.000Z,28.64
2022-10-22T13:57:24.000Z,20.25
2022-10-22T14:02:25.000Z,16.27
2022-10-22T14:07:25.000Z,15.03
2022-10-22T14:12:24.000Z,14.33
2022-10-22T14:17:25.000Z,14.95
2022-10-22T14:27:25.000Z,14.56
2022-10-22T14:47:24.000Z,20.33
2022-10-22T14:57:24.000Z,16.38
2022-10-22T15:02:24.000Z,16.49
2022-10-22T15:07:24.000Z,16.18
2022-10-22T15:12:25.000Z,16.43
2022-10-22T15:42:24.000Z,15.27
2022-10-22T16:07:25.000Z,26.64
2022-10-22T16:42:24.000Z,30.74
2022-10-22T16:47:25.000Z,21.09
2022-10-22T16:52:25.000Z,24.42
2022-10-22T16:57:25.000Z,22.12
2022-10-22T17:02:24.000Z,20.75
2022-10-22T17:07:24.000Z,19.71
2022-10-22T17:12:24.000Z,19.07
2022-10-22T17:17:24.000Z,18.98
2022-10-22T17:22:25.000Z,17.4
2022-10-22T17:27:25.000Z,17.15
2022-10-22T17:32:25.000Z,16.31
2022-10-22T17:42:24.000Z,15.4
2022-10-22T17:47:24.000Z,15.31
2022-10-22T17:52:24.000Z,15.59
2022-10-22T17:57:24.000Z,15.36
2022-10-22T18:02:24.000Z,15.66
2022-10-22T18:07:24.000Z,15.81
2022-10-22T18:12:25.000Z,15.15
2022-10-22T18:17:24.000Z,15.36
2022-10-22T18:22:25.000Z,15.31
2022-10-22T18:27:24.000Z,15.57
2022-10-22T18:32:25.000Z,15.19
2022-10-22T18:37:24.000Z,14.63
2022-10-22T18:42:25.000Z,14.72
2022-10-22T18:52:24.000Z,15
2022-10-22T18:57:24.000Z,14.75
2022-10-22T19:02:24.000Z,14.26
2022-10-22T19:07:24.000Z,15.67
2022-10-22T19:12:24.000Z,14.9
2022-10-22T19:22:24.000Z,15.33
2022-10-22T19:27:24.000Z,15.87
2022-10-22T19:32:24.000Z,15.83
2022-10-22T19:37:25.000Z,16.12
2022-10-22T19:42:24.000Z,15.47
2022-10-22T19:47:24.000Z,15.4
2022-10-22T19:52:24.000Z,15.54
2022-10-22T19:57:25.000Z,15.16
2022-10-22T20:02:24.000Z,15.25
2022-10-22T20:07:24.000Z,14.84
2022-10-22T20:12:24.000Z,15.26
2022-10-22T20:17:25.000Z,14.88
2022-10-22T20:22:25.000Z,15.43
2022-10-22T20:27:24.000Z,15.62
2022-10-22T20:32:24.000Z,15.35
2022-10-22T20:37:24.000Z,14.97
2022-10-22T20:42:24.000Z,14.99
2022-10-22T20:52:25.000Z,14.25
2022-10-22T20:57:25.000Z,14.36
2022-10-22T21:02:24.000Z,14.34
2022-10-22T21:07:24.000Z,14.21
2022-10-22T21:12:25.000Z,14.29
2022-10-22T21:17:24.000Z,14.46
2022-10-22T21:22:24.000Z,13.89
2022-10-22T21:27:24.000Z,14.18
2022-10-22T21:32:24.000Z,13.73
2022-10-22T21:37:25.000Z,13.77
2022-10-22T21:42:25.000Z,13.94
2022-10-22T21:47:25.000Z,13.4
2022-10-22T21:52:24.000Z,13.74
2022-10-22T21:57:24.000Z,13.65
2022-10-22T22:02:25.000Z,14.27
2022-10-22T22:07:24.000Z,13.55
2022-10-22T22:12:25.000Z,13.49
2022-10-22T22:17:24.000Z,13.45
2022-10-22T22:22:25.000Z,13.97
2022-10-22T22:27:24.000Z,13.43
2022-10-22T22:32:25.000Z,12.8
2022-10-22T22:37:25.000Z,13.33
2022-10-22T22:47:25.000Z,13.31
2022-10-22T22:52:25.000Z,13.28
2022-10-22T22:57:24.000Z,13.31
2022-10-22T23:02:24.000Z,13.59
2022-10-22T23:07:24.000Z,13.36
2022-10-22T23:12:25.000Z,13.29
2022-10-22T23:17:24.000Z,13.7
2022-10-22T23:22:24.000Z,13.03
2022-10-22T23:27:25.000Z,13.27
2022-10-22T23:32:24.000Z,13.29
2022-10-22T23:37:24.000Z,12.91
2022-10-22T23:42:24.000Z,12.95
2022-10-22T23:47:24.000Z,13.26
2022-10-22T23:52:24.000Z,13.01
2022-10-22T23:57:25.000Z,12.99
